| time (UTC) | temp C | wind direction | speed KPH | gust KPH | rain 1hr cm | rain 24hr cm | rain mn cm | humidity % | barometer mb |
| 20260904125023 | 26 | 185 | 3.2 | 6.4 | 0.00 | 0.00 | 0.00 | 82 | 1016.1 |
| 20260904124023 | 26 | 150 | 1.6 | 4.8 | 0.00 | 0.00 | 0.00 | 84 | 1016.0 |
| 20260904123023 | 25 | 182 | 3.2 | 6.4 | 0.00 | 0.00 | 0.00 | 84 | 1016.0 |
| 20260904122024 | 25 | 183 | 1.6 | 4.8 | 0.00 | 0.00 | 0.00 | 84 | 1015.9 |
| 20260904121024 | 25 | 165 | 1.6 | 4.8 | 0.00 | 0.00 | 0.00 | 84 | 1015.8 |
| 20260904120024 | 25 | 187 | 1.6 | 4.8 | 0.00 | 0.00 | 0.00 | 84 | 1015.8 |
| 20260904115044 | 25 | 163 | 1.6 | 4.8 | 0.00 | 0.00 | 0.00 | 83 | 1015.8 |
| 20260904114024 | 25 | 197 | 1.6 | 4.8 | 0.00 | 0.00 | 0.00 | 83 | 1015.7 |
| 20260904113024 | 25 | 195 | 1.6 | 4.8 | 0.00 | 0.00 | 0.00 | 83 | 1015.7 |
| 20260904112045 | 25 | 222 | 1.6 | 4.8 | 0.00 | 0.00 | 0.00 | 83 | 1015.7 |
| 20260904111024 | 25 | 211 | 1.6 | 3.2 | 0.00 | 0.00 | 0.00 | 83 | 1015.7 |
| 20260904110045 | 26 | 205 | 1.6 | 4.8 | 0.00 | 0.00 | 0.00 | 82 | 1015.6 |
| 20260904105045 | 26 | 196 | 1.6 | 4.8 | 0.00 | 0.00 | 0.00 | 82 | 1015.4 |
| 20260904104045 | 26 | 212 | 1.6 | 3.2 | 0.00 | 0.00 | 0.00 | 82 | 1015.5 |
| 20260904103025 | 26 | 228 | 0.0 | 3.2 | 0.00 | 0.00 | 0.00 | 82 | 1015.5 |
| 20260904102046 | 26 | 185 | 1.6 | 1.6 | 0.00 | 0.00 | 0.00 | 81 | 1015.4 |
| 20260904101026 | 26 | 187 | 1.6 | 6.4 | 0.00 | 0.00 | 0.00 | 81 | 1015.3 |
| 20260904100026 | 26 | 169 | 1.6 | 6.4 | 0.00 | 0.00 | 0.00 | 81 | 1015.2 |
| 20260904095026 | 26 | 179 | 3.2 | 4.8 | 0.00 | 0.00 | 0.00 | 80 | 1015.2 |
| 20260904094026 | 26 | 180 | 1.6 | 3.2 | 0.00 | 0.00 | 0.00 | 80 | 1015.2 |
| 20260904093046 | 26 | 184 | 1.6 | 4.8 | 0.00 | 0.00 | 0.00 | 80 | 1015.2 |
| 20260904092027 | 26 | 192 | 1.6 | 4.8 | 0.00 | 0.00 | 0.00 | 79 | 1015.2 |
| 20260904091026 | 26 | 189 | 3.2 | 6.4 | 0.00 | 0.00 | 0.00 | 79 | 1015.2 |
| 20260904090027 | 26 | 193 | 0.0 | 1.6 | 0.00 | 0.00 | 0.00 | 79 | 1015.3 |
| 20260904085027 | 26 | 217 | 3.2 | 6.4 | 0.00 | 0.00 | 0.00 | 79 | 1015.3 |
| 20260904084028 | 26 | 220 | 1.6 | 3.2 | 0.00 | 0.00 | 0.00 | 79 | 1015.2 |
| 20260904083028 | 26 | 282 | 1.6 | 3.2 | 0.00 | 0.00 | 0.00 | 79 | 1015.1 |
| 20260904082028 | 26 | 207 | 1.6 | 3.2 | 0.00 | 0.00 | 0.00 | 78 | 1015.1 |
| 20260904081048 | 26 | 232 | 1.6 | 3.2 | 0.00 | 0.00 | 0.00 | 78 | 1015.1 |
| 20260904080048 | 26 | 198 | 1.6 | 3.2 | 0.00 | 0.00 | 0.00 | 78 | 1015.1 |
| 20260904075028 | 26 | 209 | 1.6 | 3.2 | 0.00 | 0.00 | 0.00 | 77 | 1015.0 |
| 20260904074023 | 26 | 275 | 1.6 | 8.0 | 0.00 | 0.00 | 0.00 | 76 | 1015.0 |
| 20260904073028 | 26 | 196 | 1.6 | 6.4 | 0.00 | 0.00 | 0.00 | 76 | 1015.0 |
| 20260904072029 | 26 | 270 | 1.6 | 3.2 | 0.00 | 0.00 | 0.00 | 75 | 1015.2 |
| 20260904071029 | 26 | 259 | 0.0 | 3.2 | 0.00 | 0.00 | 0.00 | 75 | 1015.2 |
| 20260904070029 | 26 | 269 | 1.6 | 3.2 | 0.00 | 0.00 | 0.00 | 75 | 1015.2 |
| 20260904065029 | 26 | 254 | 1.6 | 4.8 | 0.00 | 0.00 | 0.00 | 75 | 1015.3 |
| 20260904064030 | 27 | 221 | 1.6 | 4.8 | 0.00 | 0.00 | 0.00 | 74 | 1015.3 |
| 20260904063031 | 27 | 208 | 1.6 | 3.2 | 0.00 | 0.00 | 0.00 | 74 | 1015.3 |
| 20260904062030 | 27 | 215 | 1.6 | 4.8 | 0.00 | 0.00 | 0.00 | 74 | 1015.3 |
| 20260904061050 | 27 | 209 | 1.6 | 6.4 | 0.00 | 0.00 | 0.00 | 73 | 1015.4 |
| 20260904060024 | 27 | 203 | 3.2 | 8.0 | 0.00 | 0.00 | 0.00 | 73 | 1015.4 |
| 20260904055030 | 27 | 192 | 1.6 | 6.4 | 0.00 | 0.00 | 0.00 | 72 | 1015.4 |
| 20260904054018 | 27 | 202 | 3.2 | 9.7 | 0.00 | 0.00 | 0.00 | 71 | 1015.4 |
| 20260904053030 | 27 | 212 | 1.6 | 4.8 | 0.00 | 0.00 | 0.00 | 70 | 1015.3 |
| 20260904052018 | 27 | 225 | 3.2 | 9.7 | 0.00 | 0.00 | 0.00 | 69 | 1015.2 |
| 20260904051031 | 27 | 205 | 3.2 | 8.0 | 0.00 | 0.00 | 0.00 | 69 | 1015.2 |
| 20260904050031 | 27 | 226 | 3.2 | 6.4 | 0.00 | 0.00 | 0.00 | 68 | 1015.1 |
| 20260904045031 | 27 | 187 | 3.2 | 6.4 | 0.00 | 0.00 | 0.00 | 68 | 1015.1 |
| 20260904044032 | 27 | 212 | 3.2 | 6.4 | 0.00 | 0.00 | 0.00 | 68 | 1015.2 |
| 20260904043051 | 27 | 195 | 1.6 | 4.8 | 0.00 | 0.00 | 0.00 | 67 | 1015.2 |
| 20260904042052 | 27 | 189 | 3.2 | 8.0 | 0.00 | 0.00 | 0.00 | 67 | 1015.2 |
| 20260904041032 | 28 | 228 | 3.2 | 8.0 | 0.00 | 0.00 | 0.00 | 67 | 1015.3 |
| 20260904040020 | 28 | 217 | 4.8 | 9.7 | 0.00 | 0.00 | 0.00 | 65 | 1015.3 |
| 20260904035020 | 28 | 201 | 3.2 | 9.7 | 0.00 | 0.00 | 0.00 | 62 | 1015.2 |
| 20260904034017 | 28 | 211 | 3.2 | 11.3 | 0.00 | 0.00 | 0.00 | 62 | 1015.2 |
| 20260904033018 | 28 | 213 | 3.2 | 12.9 | 0.00 | 0.00 | 0.00 | 61 | 1015.4 |
| 20260904032018 | 28 | 172 | 3.2 | 12.9 | 0.00 | 0.00 | 0.00 | 61 | 1015.4 |
| 20260904031038 | 28 | 203 | 1.6 | 8.0 | 0.00 | 0.00 | 0.00 | 62 | 1015.3 |
| 20260904030021 | 28 | 208 | 4.8 | 16.1 | 0.00 | 0.00 | 0.00 | 63 | 1015.1 |
| 20260904025019 | 29 | 185 | 3.2 | 11.3 | 0.00 | 0.00 | 0.00 | 65 | 1015.0 |
| 20260904024018 | 29 | 191 | 3.2 | 16.1 | 0.00 | 0.00 | 0.00 | 65 | 1014.9 |
| 20260904023019 | 29 | 197 | 1.6 | 6.4 | 0.00 | 0.00 | 0.00 | 66 | 1014.7 |
| 20260904022020 | 29 | 192 | 3.2 | 8.0 | 0.00 | 0.00 | 0.00 | 65 | 1014.6 |
| 20260904021018 | 29 | 205 | 3.2 | 11.3 | 0.00 | 0.00 | 0.00 | 64 | 1014.3 |
| 20260904020019 | 30 | 200 | 3.2 | 11.3 | 0.00 | 0.00 | 0.00 | 63 | 1014.2 |
| 20260904015020 | 30 | 219 | 1.6 | 6.4 | 0.00 | 0.00 | 0.00 | 62 | 1014.1 |
| 20260904014039 | 30 | 199 | 3.2 | 9.7 | 0.00 | 0.00 | 0.00 | 60 | 1014.0 |
| 20260904013020 | 30 | 182 | 4.8 | 12.9 | 0.00 | 0.00 | 0.00 | 60 | 1013.9 |
| 20260904012020 | 30 | 174 | 4.8 | 11.3 | 0.00 | 0.00 | 0.00 | 62 | 1013.8 |
| 20260904011020 | 30 | 182 | 4.8 | 11.3 | 0.00 | 0.00 | 0.00 | 62 | 1013.6 |
| 20260904010021 | 30 | 186 | 4.8 | 14.5 | 0.00 | 0.00 | 0.00 | 62 | 1013.5 |
| 20260904005017 | 31 | 193 | 4.8 | 14.5 | 0.00 | 0.00 | 0.00 | 61 | 1013.5 |
| 20260904004017 | 31 | 180 | 4.8 | 11.3 | 0.00 | 0.00 | 0.00 | 61 | 1013.4 |
| 20260904003020 | 31 | 191 | 4.8 | 14.5 | 0.00 | 0.00 | 0.00 | 60 | 1013.4 |
| 20260904002021 | 32 | 191 | 3.2 | 11.3 | 0.00 | 0.00 | 0.00 | 59 | 1013.4 |
| 20260904001021 | 32 | 206 | 3.2 | 8.0 | 0.00 | 0.00 | 0.00 | 57 | 1013.3 |
| 20260904000018 | 32 | 195 | 4.8 | 11.3 | 0.00 | 0.00 | 0.00 | 56 | 1013.3 |
| 20260903235039 | 33 | 199 | 4.8 | 14.5 | 0.00 | 0.00 | 0.00 | 54 | 1013.2 |
| 20260903234018 | 33 | 225 | 4.8 | 9.7 | 0.00 | 0.00 | 0.00 | 54 | 1013.1 |
| 20260903233019 | 33 | 217 | 3.2 | 11.3 | 0.00 | 0.00 | 0.00 | 54 | 1013.0 |
| 20260903232019 | 33 | 200 | 4.8 | 11.3 | 0.00 | 0.00 | 0.00 | 54 | 1012.9 |
| 20260903231019 | 33 | 239 | 3.2 | 9.7 | 0.00 | 0.00 | 0.00 | 54 | 1013.0 |
| 20260903230019 | 33 | 239 | 3.2 | 9.7 | 0.00 | 0.00 | 0.00 | 55 | 1012.9 |
| 20260903225019 | 33 | 198 | 3.2 | 11.3 | 0.00 | 0.00 | 0.00 | 54 | 1013.0 |
| 20260903224020 | 33 | 206 | 4.8 | 9.7 | 0.00 | 0.00 | 0.00 | 54 | 1013.0 |
| 20260903223019 | 33 | 263 | 3.2 | 6.4 | 0.00 | 0.00 | 0.00 | 54 | 1013.0 |
| 20260903222040 | 33 | 245 | 3.2 | 8.0 | 0.00 | 0.00 | 0.00 | 55 | 1012.9 |
| 20260903221020 | 33 | 194 | 4.8 | 14.5 | 0.00 | 0.00 | 0.00 | 55 | 1013.0 |
| 20260903220021 | 33 | 196 | 4.8 | 12.9 | 0.00 | 0.00 | 0.00 | 55 | 1013.0 |
| 20260903215020 | 34 | 225 | 4.8 | 12.9 | 0.00 | 0.00 | 0.00 | 53 | 1013.0 |
| 20260903214018 | 34 | 230 | 3.2 | 8.0 | 0.00 | 0.00 | 0.00 | 54 | 1013.1 |
| 20260903213018 | 33 | 233 | 4.8 | 12.9 | 0.00 | 0.00 | 0.00 | 55 | 1013.2 |
| 20260903212021 | 34 | 213 | 4.8 | 9.7 | 0.00 | 0.00 | 0.00 | 54 | 1013.3 |
| 20260903211021 | 33 | 231 | 3.2 | 9.7 | 0.00 | 0.00 | 0.00 | 57 | 1013.4 |
| 20260903210018 | 33 | 207 | 4.8 | 11.3 | 0.00 | 0.00 | 0.00 | 57 | 1013.5 |
| 20260903205018 | 32 | 209 | 4.8 | 11.3 | 0.00 | 0.00 | 0.00 | 58 | 1013.7 |
| 20260903204019 | 32 | 220 | 4.8 | 9.7 | 0.00 | 0.00 | 0.00 | 59 | 1013.8 |
| 20260903203022 | 32 | 186 | 4.8 | 14.5 | 0.00 | 0.00 | 0.00 | 60 | 1013.9 |
| 20260903202019 | 32 | 195 | 6.4 | 19.3 | 0.00 | 0.00 | 0.00 | 59 | 1014.0 |
| 20260903201019 | 32 | 226 | 4.8 | 12.9 | 0.00 | 0.00 | 0.00 | 58 | 1014.1 |
| 20260903200040 | 32 | 197 | 4.8 | 9.7 | 0.00 | 0.00 | 0.00 | 61 | 1014.1 |
| 20260903195020 | 32 | 188 | 4.8 | 17.7 | 0.00 | 0.00 | 0.00 | 61 | 1014.3 |
| 20260903194020 | 32 | 212 | 4.8 | 19.3 | 0.00 | 0.00 | 0.00 | 60 | 1014.3 |
| 20260903193037 | 32 | 272 | 4.8 | 9.7 | 0.00 | 0.00 | 0.00 | 60 | 1014.4 |
| 20260903192038 | 32 | 209 | 3.2 | 9.7 | 0.00 | 0.00 | 0.00 | 61 | 1014.6 |
| 20260903191020 | 31 | 220 | 4.8 | 14.5 | 0.00 | 0.00 | 0.00 | 65 | 1014.7 |
| 20260903190020 | 31 | 248 | 3.2 | 9.7 | 0.00 | 0.00 | 0.00 | 64 | 1014.9 |
| 20260903185020 | 31 | 182 | 4.8 | 12.9 | 0.00 | 0.00 | 0.00 | 65 | 1015.0 |
| 20260903184017 | 31 | 204 | 3.2 | 11.3 | 0.00 | 0.00 | 0.00 | 66 | 1015.1 |
| 20260903183026 | 30 | 256 | 3.2 | 8.0 | 0.00 | 0.00 | 0.00 | 67 | 1015.2 |
| 20260903182021 | 30 | 191 | 6.4 | 16.1 | 0.00 | 0.00 | 0.00 | 69 | 1015.2 |
| 20260903181044 | 30 | 207 | 4.8 | 11.3 | 0.00 | 0.00 | 0.00 | 70 | 1015.4 |
| 20260903180018 | 30 | 172 | 4.8 | 11.3 | 0.00 | 0.00 | 0.00 | 69 | 1015.5 |
| 20260903175018 | 30 | 182 | 6.4 | 16.1 | 0.00 | 0.00 | 0.00 | 69 | 1015.5 |
| 20260903174027 | 30 | 187 | 3.2 | 6.4 | 0.00 | 0.00 | 0.00 | 71 | 1015.6 |
| 20260903173018 | 30 | 195 | 4.8 | 12.9 | 0.00 | 0.00 | 0.00 | 71 | 1015.7 |
| 20260903172039 | 30 | 179 | 4.8 | 9.7 | 0.00 | 0.00 | 0.00 | 71 | 1015.9 |
| 20260903171025 | 30 | 198 | 3.2 | 8.0 | 0.00 | 0.00 | 0.00 | 71 | 1015.9 |
| 20260903170039 | 30 | 216 | 4.8 | 9.7 | 0.00 | 0.00 | 0.00 | 71 | 1015.8 |
| 20260903165018 | 29 | 174 | 4.8 | 9.7 | 0.00 | 0.00 | 0.00 | 74 | 1015.8 |
| 20260903164028 | 29 | 197 | 3.2 | 8.0 | 0.00 | 0.00 | 0.00 | 73 | 1015.9 |
| 20260903163019 | 29 | 222 | 3.2 | 14.5 | 0.00 | 0.00 | 0.00 | 74 | 1015.9 |
| 20260903162019 | 28 | 177 | 3.2 | 8.0 | 0.00 | 0.00 | 0.00 | 76 | 1016.0 |
| 20260903161020 | 28 | 207 | 3.2 | 9.7 | 0.00 | 0.00 | 0.00 | 76 | 1015.9 |
| 20260903160029 | 28 | 230 | 3.2 | 6.4 | 0.00 | 0.00 | 0.00 | 76 | 1015.9 |
| 20260903155020 | 28 | 200 | 3.2 | 9.7 | 0.00 | 0.00 | 0.00 | 77 | 1015.9 |
| 20260903154020 | 28 | 170 | 4.8 | 9.7 | 0.00 | 0.00 | 0.00 | 77 | 1015.8 |
| 20260903153049 | 28 | 236 | 3.2 | 6.4 | 0.00 | 0.00 | 0.00 | 76 | 1015.8 |
| 20260903152029 | 28 | 199 | 3.2 | 8.0 | 0.00 | 0.00 | 0.00 | 77 | 1015.8 |
| 20260903151029 | 27 | 187 | 3.2 | 8.0 | 0.00 | 0.00 | 0.00 | 78 | 1015.9 |
| 20260903150020 | 27 | 184 | 3.2 | 11.3 | 0.00 | 0.00 | 0.00 | 78 | 1015.9 |
| 20260903145030 | 27 | 169 | 3.2 | 6.4 | 0.00 | 0.00 | 0.00 | 79 | 1015.9 |
| 20260903144021 | 27 | 204 | 3.2 | 11.3 | 0.00 | 0.00 | 0.00 | 80 | 1015.9 |
| 20260903143030 | 26 | 182 | 3.2 | 6.4 | 0.00 | 0.00 | 0.00 | 81 | 1016.0 |
| 20260903142031 | 26 | 160 | 3.2 | 4.8 | 0.00 | 0.00 | 0.00 | 81 | 1016.0 |
| 20260903141021 | 26 | 174 | 4.8 | 11.3 | 0.00 | 0.00 | 0.00 | 82 | 1016.1 |
| 20260903140021 | 26 | 166 | 4.8 | 9.7 | 0.00 | 0.00 | 0.00 | 81 | 1016.0 |
| 20260903135030 | 26 | 177 | 3.2 | 8.0 | 0.00 | 0.00 | 0.00 | 81 | 1016.0 |
| 20260903134031 | 26 | 190 | 3.2 | 6.4 | 0.00 | 0.00 | 0.00 | 81 | 1015.9 |
| 20260903133031 | 26 | 197 | 3.2 | 6.4 | 0.00 | 0.00 | 0.00 | 81 | 1015.9 |
| 20260903132031 | 26 | 172 | 3.2 | 8.0 | 0.00 | 0.00 | 0.00 | 80 | 1015.9 |
| 20260903131031 | 26 | 158 | 1.6 | 4.8 | 0.00 | 0.00 | 0.00 | 80 | 1015.8 |
| 20260903130031 | 26 | 202 | 3.2 | 4.8 | 0.00 | 0.00 | 0.00 | 80 | 1015.7 |